createdAt,value
2022-11-27T00:00:17.020Z,26.84
2022-11-27T00:02:43.786Z,26.83
2022-11-27T00:05:10.513Z,26.79
2022-11-27T00:07:37.354Z,26.78
2022-11-27T00:10:07.550Z,26.75
2022-11-27T00:12:34.839Z,26.74
2022-11-27T00:15:02.943Z,26.72
2022-11-27T00:17:29.712Z,26.71
2022-11-27T00:19:56.295Z,26.68
2022-11-27T00:22:22.914Z,26.67
2022-11-27T00:24:49.438Z,26.65
2022-11-27T00:27:16.680Z,26.64
2022-11-27T00:29:43.669Z,26.62
2022-11-27T00:32:10.415Z,26.59
2022-11-27T00:34:37.415Z,26.58
2022-11-27T00:37:04.621Z,26.56
2022-11-27T00:39:31.298Z,26.55
2022-11-27T00:41:57.982Z,26.53
2022-11-27T00:44:25.396Z,26.52
2022-11-27T00:46:52.189Z,26.49
2022-11-27T00:49:18.733Z,26.49
2022-11-27T00:51:46.547Z,26.47
2022-11-27T00:54:13.082Z,26.45
2022-11-27T00:56:40.168Z,26.44
2022-11-27T00:59:07.924Z,26.42
2022-11-27T01:01:37.818Z,26.39
2022-11-27T01:04:06.221Z,26.38
2022-11-27T01:06:33.052Z,26.38
2022-11-27T01:08:59.812Z,26.36
2022-11-27T01:11:31.255Z,26.35
2022-11-27T01:14:04.932Z,26.33
2022-11-27T01:16:32.862Z,26.32
2022-11-27T01:19:00.792Z,26.31
2022-11-27T01:21:29.534Z,26.30
2022-11-27T01:23:56.658Z,26.27
2022-11-27T01:26:24.198Z,26.27
2022-11-27T01:28:54.956Z,26.26
2022-11-27T01:31:23.887Z,26.24
2022-11-27T01:33:56.543Z,26.22
2022-11-27T01:36:23.541Z,26.22
2022-11-27T01:38:50.344Z,26.20
2022-11-27T01:41:19.840Z,26.18
2022-11-27T01:43:57.971Z,26.17
2022-11-27T01:46:30.030Z,26.17
2022-11-27T01:49:21.069Z,26.15
2022-11-27T01:51:56.335Z,26.14
2022-11-27T01:54:26.701Z,26.13
2022-11-27T01:56:56.927Z,26.12
2022-11-27T01:59:23.951Z,26.11
2022-11-27T02:01:50.726Z,26.09
2022-11-27T02:04:18.280Z,26.09
2022-11-27T02:06:46.142Z,26.08
2022-11-27T02:09:13.066Z,26.06
2022-11-27T02:11:39.479Z,26.05
2022-11-27T02:14:22.334Z,26.04
2022-11-27T02:16:58.401Z,26.04
2022-11-27T02:19:50.235Z,26.03
2022-11-27T02:22:36.264Z,26.01
2022-11-27T02:25:12.793Z,26.01
2022-11-27T02:27:54.517Z,26.00
2022-11-27T02:30:21.392Z,25.98
2022-11-27T02:33:00.395Z,25.97
2022-11-27T02:35:40.189Z,25.96
2022-11-27T02:38:11.025Z,25.94
2022-11-27T02:40:55.085Z,25.94
2022-11-27T02:43:32.388Z,25.93
2022-11-27T02:46:00.682Z,25.92
2022-11-27T02:48:31.641Z,25.91
2022-11-27T02:50:58.271Z,25.91
2022-11-27T02:53:32.000Z,25.89
2022-11-27T02:56:00.011Z,25.89
2022-11-27T02:58:27.896Z,25.87
2022-11-27T03:00:55.837Z,25.87
2022-11-27T03:03:27.165Z,25.87
2022-11-27T03:05:57.841Z,25.85
2022-11-27T03:08:38.976Z,25.83
2022-11-27T03:11:08.383Z,25.83
2022-11-27T03:13:38.389Z,25.83
2022-11-27T03:16:17.028Z,25.80
2022-11-27T03:18:57.094Z,25.80
2022-11-27T03:21:35.381Z,25.79
2022-11-27T03:24:02.246Z,25.79
2022-11-27T03:26:28.949Z,25.78
2022-11-27T03:28:58.340Z,25.76
2022-11-27T03:31:25.497Z,25.75
2022-11-27T03:33:52.769Z,25.72
2022-11-27T03:36:21.281Z,25.72
2022-11-27T03:38:49.282Z,25.75
2022-11-27T03:41:24.137Z,25.71
2022-11-27T03:44:10.534Z,25.70
2022-11-27T03:46:57.078Z,25.69
2022-11-27T03:50:05.106Z,25.68
2022-11-27T03:52:53.052Z,25.67
2022-11-27T03:55:43.143Z,25.66
2022-11-27T03:58:16.098Z,25.65
2022-11-27T04:00:44.408Z,25.63
2022-11-27T04:03:12.297Z,25.64
2022-11-27T04:05:39.368Z,25.59
2022-11-27T04:08:06.011Z,25.61
2022-11-27T04:10:32.631Z,25.60
2022-11-27T04:12:59.164Z,25.60
2022-11-27T04:15:25.749Z,25.59
2022-11-27T04:17:52.272Z,25.60
2022-11-27T04:20:18.880Z,25.57
2022-11-27T04:22:45.429Z,25.57
2022-11-27T04:25:12.423Z,25.56
2022-11-27T04:27:39.107Z,25.56
2022-11-27T04:30:06.260Z,25.55
2022-11-27T04:32:32.857Z,25.55
2022-11-27T04:34:59.417Z,25.54
2022-11-27T04:37:26.227Z,25.53
2022-11-27T04:39:52.828Z,25.53
2022-11-27T04:42:19.425Z,25.53
2022-11-27T04:44:45.978Z,25.52
2022-11-27T04:47:12.513Z,25.51
2022-11-27T04:49:39.258Z,25.51
2022-11-27T04:52:05.832Z,25.50
2022-11-27T04:54:32.439Z,25.48
2022-11-27T04:56:59.022Z,25.49
2022-11-27T04:59:25.576Z,25.48
2022-11-27T05:01:52.090Z,25.48
2022-11-27T05:04:18.836Z,25.46
2022-11-27T05:06:45.416Z,25.44
2022-11-27T05:09:12.896Z,25.44
2022-11-27T05:11:39.817Z,25.42
2022-11-27T05:14:15.176Z,25.42
2022-11-27T05:16:46.520Z,25.40
2022-11-27T05:19:14.893Z,25.39
2022-11-27T05:21:42.173Z,25.37
2022-11-27T05:24:09.946Z,25.37
2022-11-27T05:26:37.281Z,25.36
2022-11-27T05:29:04.542Z,25.35
2022-11-27T05:31:31.190Z,25.36
2022-11-27T05:33:58.261Z,25.34
2022-11-27T05:36:25.069Z,25.32
2022-11-27T05:38:51.997Z,25.32
2022-11-27T05:41:18.656Z,25.31
2022-11-27T05:43:45.549Z,25.31
2022-11-27T05:46:15.105Z,25.30
2022-11-27T05:48:42.378Z,25.29
2022-11-27T05:51:09.127Z,25.30
2022-11-27T05:53:36.897Z,25.28
2022-11-27T05:56:12.051Z,25.28
2022-11-27T05:58:39.785Z,25.26
2022-11-27T06:01:07.095Z,25.27
2022-11-27T06:03:35.046Z,25.24
2022-11-27T06:06:09.463Z,25.24
2022-11-27T06:08:37.047Z,25.21
2022-11-27T06:11:11.795Z,25.20
2022-11-27T06:13:38.520Z,25.16
2022-11-27T06:16:11.642Z,25.17
2022-11-27T06:18:38.310Z,25.15
2022-11-27T06:21:09.363Z,25.15
2022-11-27T06:23:36.502Z,25.18
2022-11-27T06:26:20.622Z,25.24
2022-11-27T06:28:48.058Z,25.30
2022-11-27T06:31:18.451Z,25.36
2022-11-27T06:33:49.796Z,25.42
2022-11-27T06:36:17.303Z,25.50
2022-11-27T06:38:44.435Z,25.58
2022-11-27T06:41:16.696Z,25.67
2022-11-27T06:43:44.367Z,25.78
2022-11-27T06:46:13.886Z,25.87
2022-11-27T06:48:41.089Z,25.97
2022-11-27T06:51:08.530Z,26.08
2022-11-27T06:53:36.780Z,26.20
2022-11-27T06:56:08.892Z,26.32
2022-11-27T06:58:36.588Z,26.44
2022-11-27T07:01:05.599Z,26.55
2022-11-27T07:03:32.279Z,26.66
2022-11-27T07:06:03.630Z,26.78
2022-11-27T07:08:30.615Z,26.89
2022-11-27T07:11:07.140Z,27.01
2022-11-27T07:13:34.500Z,27.13
2022-11-27T07:16:06.379Z,27.23
2022-11-27T07:18:38.180Z,27.33
2022-11-27T07:21:05.191Z,27.43
2022-11-27T07:23:32.320Z,27.54
2022-11-27T07:25:59.077Z,27.63
2022-11-27T07:28:25.608Z,27.71
2022-11-27T07:30:57.468Z,27.81
2022-11-27T07:33:24.988Z,27.90
2022-11-27T07:36:05.469Z,27.99
2022-11-27T07:38:32.231Z,28.06
2022-11-27T07:41:02.820Z,28.15
2022-11-27T07:43:30.369Z,28.22
2022-11-27T07:45:57.011Z,28.35
2022-11-27T07:48:24.969Z,29.08
2022-11-27T07:50:51.773Z,29.23
2022-11-27T07:53:18.644Z,29.03
2022-11-27T07:55:45.317Z,28.86
2022-11-27T07:58:12.129Z,28.69
2022-11-27T08:00:38.825Z,28.52
2022-11-27T08:03:06.406Z,28.39
2022-11-27T08:05:38.072Z,28.23
2022-11-27T08:08:05.037Z,28.12
2022-11-27T08:10:36.100Z,28.02
2022-11-27T08:13:03.033Z,27.94
2022-11-27T08:15:29.689Z,27.87
2022-11-27T08:17:56.324Z,27.80
2022-11-27T08:20:23.124Z,27.68
2022-11-27T08:22:50.032Z,27.48
2022-11-27T08:25:17.319Z,27.33
2022-11-27T08:27:46.223Z,27.28
2022-11-27T08:30:13.291Z,27.28
2022-11-27T08:32:40.635Z,27.29
2022-11-27T08:35:07.895Z,27.31
2022-11-27T08:37:35.373Z,27.32
2022-11-27T08:40:03.613Z,27.34
2022-11-27T08:42:30.459Z,27.36
2022-11-27T08:44:57.111Z,27.41
2022-11-27T08:47:23.983Z,27.43
2022-11-27T08:49:50.519Z,27.46
2022-11-27T08:52:17.104Z,27.50
2022-11-27T08:54:43.657Z,27.54
2022-11-27T08:57:10.328Z,27.57
2022-11-27T08:59:36.890Z,27.61
2022-11-27T09:02:03.980Z,27.65
2022-11-27T09:04:33.134Z,27.70
2022-11-27T09:06:59.913Z,27.74
2022-11-27T09:09:26.881Z,27.78
2022-11-27T09:11:56.542Z,27.83
2022-11-27T09:14:23.153Z,27.88
2022-11-27T09:16:49.812Z,27.90
2022-11-27T09:19:17.067Z,27.92
2022-11-27T09:21:44.534Z,27.93
2022-11-27T09:24:11.154Z,27.89
2022-11-27T09:26:39.083Z,27.87
2022-11-27T09:29:07.210Z,27.86
2022-11-27T09:31:33.885Z,27.86
2022-11-27T09:34:00.433Z,27.85
2022-11-27T09:36:27.806Z,27.85
2022-11-27T09:38:54.519Z,27.82
2022-11-27T09:41:45.739Z,27.80
2022-11-27T09:44:29.768Z,27.77
2022-11-27T09:46:57.277Z,27.73
2022-11-27T09:49:26.637Z,27.71
2022-11-27T09:52:03.698Z,27.66
2022-11-27T09:54:40.559Z,27.61
2022-11-27T09:57:13.961Z,27.56
2022-11-27T09:59:43.752Z,27.53
2022-11-27T10:02:38.368Z,27.48
2022-11-27T10:05:17.212Z,27.43
2022-11-27T10:08:14.588Z,27.36
2022-11-27T10:11:07.577Z,27.27
2022-11-27T10:14:10.998Z,27.16
2022-11-27T10:16:48.869Z,27.02
2022-11-27T10:19:26.592Z,26.84
2022-11-27T10:21:57.827Z,26.74
2022-11-27T10:24:47.122Z,26.66
2022-11-27T10:27:20.484Z,26.56
2022-11-27T10:29:55.737Z,26.49
2022-11-27T10:35:15.497Z,26.39
2022-11-27T10:37:41.946Z,26.36
2022-11-27T10:40:14.452Z,26.35
2022-11-27T10:43:05.534Z,26.34
2022-11-27T10:45:40.616Z,26.32
2022-11-27T10:48:07.305Z,26.28
2022-11-27T10:50:34.255Z,26.26
2022-11-27T10:53:07.431Z,26.26
2022-11-27T10:55:45.763Z,26.25
2022-11-27T10:58:33.008Z,26.21
2022-11-27T11:01:05.277Z,26.20
2022-11-27T11:03:31.887Z,26.18
2022-11-27T11:06:20.228Z,26.16
2022-11-27T11:08:48.075Z,26.15
2022-11-27T11:11:25.427Z,26.12
2022-11-27T11:13:54.774Z,26.11
2022-11-27T11:16:24.995Z,26.10
2022-11-27T11:18:54.630Z,26.08
2022-11-27T11:21:27.366Z,26.04
2022-11-27T11:24:04.562Z,26.04
2022-11-27T11:26:34.648Z,26.01
2022-11-27T11:29:03.724Z,26.00
2022-11-27T11:31:36.132Z,26.00
2022-11-27T11:34:07.617Z,25.98
2022-11-27T11:36:35.116Z,25.98
2022-11-27T11:39:01.664Z,25.98
2022-11-27T11:41:37.432Z,25.96
2022-11-27T11:44:04.932Z,25.97
2022-11-27T11:46:33.768Z,25.94
2022-11-27T11:49:08.346Z,25.96
2022-11-27T11:51:56.652Z,25.95
2022-11-27T11:55:00.178Z,25.94
2022-11-27T11:57:46.398Z,25.93
2022-11-27T12:00:16.835Z,25.89
2022-11-27T12:03:22.351Z,25.92
2022-11-27T12:06:11.839Z,25.91
2022-11-27T12:08:53.616Z,25.90
2022-11-27T12:11:27.407Z,25.90
2022-11-27T12:14:21.863Z,25.89
2022-11-27T12:17:20.798Z,25.88
2022-11-27T12:19:53.934Z,25.87
2022-11-27T12:22:53.397Z,25.86
2022-11-27T12:25:34.110Z,25.84
2022-11-27T12:28:22.099Z,25.83
2022-11-27T12:31:23.875Z,25.75
2022-11-27T12:33:50.388Z,25.78
2022-11-27T12:36:21.274Z,25.78
2022-11-27T12:39:08.844Z,25.77
2022-11-27T12:41:47.646Z,25.71
2022-11-27T12:44:23.715Z,25.58
2022-11-27T12:47:00.522Z,25.48
2022-11-27T12:49:34.396Z,25.36
2022-11-27T12:52:22.365Z,25.26
2022-11-27T12:55:01.915Z,25.23
2022-11-27T12:57:39.704Z,25.16
2022-11-27T13:00:24.273Z,25.10
2022-11-27T13:03:02.148Z,25.02
2022-11-27T13:05:33.205Z,24.95
2022-11-27T13:08:04.237Z,24.93
2022-11-27T13:10:39.686Z,24.91
2022-11-27T13:13:11.253Z,24.86
2022-11-27T13:15:46.885Z,24.82
2022-11-27T13:18:39.975Z,24.76
2022-11-27T13:21:13.753Z,24.71
2022-11-27T13:23:40.557Z,24.66
2022-11-27T13:26:45.077Z,24.61
2022-11-27T13:29:31.872Z,24.56
2022-11-27T13:32:00.555Z,24.55
2022-11-27T13:34:29.073Z,24.51
2022-11-27T13:37:01.818Z,24.49
2022-11-27T13:39:29.650Z,24.46
2022-11-27T13:42:02.538Z,24.40
2022-11-27T13:44:30.006Z,24.39
2022-11-27T13:46:59.886Z,24.36
2022-11-27T13:49:36.625Z,24.35
2022-11-27T13:52:24.775Z,24.34
2022-11-27T13:54:59.548Z,24.33
2022-11-27T13:57:28.395Z,24.29
2022-11-27T14:00:16.246Z,24.27
2022-11-27T14:02:50.713Z,24.25
2022-11-27T14:05:33.594Z,24.21
2022-11-27T14:08:00.360Z,24.18
2022-11-27T14:10:30.456Z,24.17
2022-11-27T14:13:03.599Z,24.15
2022-11-27T14:15:31.679Z,24.13
2022-11-27T14:18:26.824Z,24.08
2022-11-27T14:20:57.017Z,24.08
2022-11-27T14:23:29.583Z,24.07
2022-11-27T14:26:15.657Z,24.05
2022-11-27T14:28:43.836Z,24.05
2022-11-27T14:31:29.104Z,24.03
2022-11-27T14:34:15.214Z,24.03
2022-11-27T14:36:43.700Z,24.01
2022-11-27T14:39:21.267Z,23.99
2022-11-27T14:42:05.780Z,23.98
2022-11-27T14:44:32.936Z,23.97
2022-11-27T14:47:03.012Z,23.93
2022-11-27T14:49:30.874Z,23.95
2022-11-27T14:52:01.800Z,23.94
2022-11-27T14:54:31.897Z,23.93
2022-11-27T14:56:58.703Z,23.93
2022-11-27T14:59:25.482Z,23.93
2022-11-27T15:02:22.240Z,23.91
2022-11-27T15:05:02.388Z,23.88
2022-11-27T15:07:31.238Z,23.85
2022-11-27T15:09:59.643Z,23.83
2022-11-27T15:12:33.883Z,23.83
2022-11-27T15:15:06.250Z,23.86
2022-11-27T15:17:35.405Z,23.91
2022-11-27T15:20:05.112Z,23.96
2022-11-27T15:22:33.566Z,24.00
2022-11-27T15:25:05.325Z,24.07
2022-11-27T15:27:33.481Z,24.12
2022-11-27T15:30:03.004Z,24.15
2022-11-27T15:32:51.952Z,24.18
2022-11-27T15:35:27.568Z,24.21
2022-11-27T15:37:58.126Z,24.23
2022-11-27T15:40:32.320Z,24.26
2022-11-27T15:42:59.172Z,24.28
2022-11-27T15:45:32.039Z,24.29
2022-11-27T15:48:00.323Z,24.32
2022-11-27T15:50:28.279Z,24.33
2022-11-27T15:52:54.903Z,24.35
2022-11-27T15:55:22.162Z,24.36
2022-11-27T15:57:49.872Z,24.32
2022-11-27T16:00:16.895Z,24.21
2022-11-27T16:02:44.301Z,24.07
2022-11-27T16:05:10.970Z,23.97
2022-11-27T16:07:37.821Z,23.91
2022-11-27T16:10:05.915Z,23.85
2022-11-27T16:12:34.055Z,23.82
2022-11-27T16:15:00.567Z,23.78
2022-11-27T16:17:27.336Z,23.78
2022-11-27T16:19:53.867Z,23.79
2022-11-27T16:22:22.254Z,23.80
2022-11-27T16:24:49.057Z,23.76
2022-11-27T16:27:15.618Z,23.79
2022-11-27T16:29:42.920Z,23.81
2022-11-27T16:32:09.687Z,23.81
2022-11-27T16:34:36.814Z,23.81
2022-11-27T16:37:04.829Z,23.82
2022-11-27T16:39:32.009Z,23.84
2022-11-27T16:41:58.745Z,23.86
2022-11-27T16:44:25.976Z,23.87
2022-11-27T16:46:53.604Z,23.89
2022-11-27T16:49:21.688Z,23.88
2022-11-27T16:51:49.818Z,23.90
2022-11-27T16:54:16.672Z,23.94
2022-11-27T16:56:45.553Z,23.97
2022-11-27T16:59:14.180Z,23.99
2022-11-27T17:01:43.870Z,23.98
2022-11-27T17:04:19.430Z,24.03
2022-11-27T17:06:48.257Z,24.01
2022-11-27T17:09:15.229Z,24.04
2022-11-27T17:11:45.749Z,24.05
2022-11-27T17:14:12.389Z,24.06
2022-11-27T17:16:41.199Z,24.06
2022-11-27T17:19:13.399Z,24.09
2022-11-27T17:21:41.554Z,24.07
2022-11-27T17:24:15.275Z,24.11
2022-11-27T17:26:47.114Z,24.12
2022-11-27T17:29:17.117Z,24.14
2022-11-27T17:31:44.196Z,24.15
2022-11-27T17:34:14.139Z,24.16
2022-11-27T17:36:42.886Z,24.15
2022-11-27T17:39:12.714Z,24.17
2022-11-27T17:41:40.523Z,24.18
2022-11-27T17:44:08.009Z,24.19
2022-11-27T17:46:36.181Z,24.19
2022-11-27T17:49:06.999Z,24.20
2022-11-27T17:51:36.439Z,24.22
2022-11-27T17:54:03.905Z,24.23
2022-11-27T17:56:32.547Z,24.22
2022-11-27T17:59:02.136Z,24.24
2022-11-27T18:01:30.341Z,24.25
2022-11-27T18:04:04.227Z,24.24
2022-11-27T18:06:32.769Z,24.26
2022-11-27T18:09:00.029Z,24.26
2022-11-27T18:11:30.130Z,24.26
2022-11-27T18:13:59.431Z,24.27
2022-11-27T18:16:33.114Z,24.26
2022-11-27T18:19:05.722Z,24.27
2022-11-27T18:21:33.423Z,24.27
2022-11-27T18:24:22.951Z,24.26
2022-11-27T18:29:42.070Z,24.27
2022-11-27T18:32:09.624Z,24.27
2022-11-27T18:34:36.396Z,24.23
2022-11-27T18:37:03.991Z,24.28
2022-11-27T18:39:31.487Z,24.28
2022-11-27T18:41:58.186Z,24.27
2022-11-27T18:44:25.182Z,24.26
2022-11-27T18:46:52.797Z,24.27
2022-11-27T18:49:19.436Z,24.28
2022-11-27T18:51:46.634Z,24.27
2022-11-27T18:54:13.646Z,24.28
2022-11-27T18:56:40.272Z,24.28
2022-11-27T18:59:08.594Z,24.29
2022-11-27T19:01:41.915Z,24.29
2022-11-27T19:04:10.567Z,24.26
2022-11-27T19:06:38.969Z,24.29
2022-11-27T19:09:06.288Z,24.31
2022-11-27T19:11:33.931Z,24.33
2022-11-27T19:14:01.218Z,24.35
2022-11-27T19:16:43.716Z,24.42
2022-11-27T19:22:06.728Z,24.58
2022-11-27T19:24:33.364Z,24.66
2022-11-27T19:27:00.031Z,24.75
2022-11-27T19:29:27.357Z,24.83
2022-11-27T19:31:56.046Z,24.91
2022-11-27T19:34:24.288Z,25.00
2022-11-27T19:36:51.241Z,25.09
2022-11-27T19:39:17.990Z,25.16
2022-11-27T19:41:45.213Z,25.25
2022-11-27T19:44:17.439Z,25.32
2022-11-27T19:46:45.043Z,25.42
2022-11-27T19:49:17.586Z,25.50
2022-11-27T19:51:45.723Z,25.58
2022-11-27T19:54:14.055Z,25.65
2022-11-27T19:56:42.470Z,25.71
2022-11-27T19:59:10.064Z,25.81
2022-11-27T20:01:40.135Z,25.88
2022-11-27T20:04:07.777Z,25.95
2022-11-27T20:06:34.499Z,26.01
2022-11-27T20:09:03.879Z,26.10
2022-11-27T20:11:34.994Z,26.17
2022-11-27T20:14:05.362Z,26.26
2022-11-27T20:16:33.591Z,26.33
2022-11-27T20:19:01.861Z,26.39
2022-11-27T20:21:28.540Z,26.47
2022-11-27T20:23:55.187Z,26.54
2022-11-27T20:26:25.518Z,26.61
2022-11-27T20:28:54.016Z,26.68
2022-11-27T20:31:24.816Z,26.74
2022-11-27T20:33:53.940Z,26.81
2022-11-27T20:36:21.464Z,26.85
2022-11-27T20:38:49.276Z,26.94
2022-11-27T20:41:18.718Z,26.98
2022-11-27T20:43:45.785Z,27.04
2022-11-27T20:46:14.379Z,27.11
2022-11-27T20:48:41.961Z,27.17
2022-11-27T20:51:10.685Z,27.23
2022-11-27T20:53:37.596Z,27.27
2022-11-27T20:56:06.539Z,27.31
2022-11-27T20:58:38.423Z,27.37
2022-11-27T21:01:23.255Z,27.42
2022-11-27T21:03:51.328Z,27.49
2022-11-27T21:06:21.828Z,27.54
2022-11-27T21:08:48.792Z,27.58
2022-11-27T21:11:18.234Z,27.62
2022-11-27T21:13:45.934Z,27.67
2022-11-27T21:16:14.136Z,27.71
2022-11-27T21:18:41.871Z,27.76
2022-11-27T21:21:11.700Z,27.81
2022-11-27T21:23:41.931Z,27.84
2022-11-27T21:26:09.797Z,27.88
2022-11-27T21:28:37.712Z,27.91
2022-11-27T21:31:06.228Z,27.95
2022-11-27T21:33:33.228Z,28.00
2022-11-27T21:36:00.576Z,28.01
2022-11-27T21:38:27.379Z,28.07
2022-11-27T21:40:55.623Z,28.11
2022-11-27T21:43:22.535Z,28.15
2022-11-27T21:45:49.480Z,28.19
2022-11-27T21:48:16.111Z,28.22
2022-11-27T21:50:42.679Z,28.26
2022-11-27T21:53:09.770Z,28.31
2022-11-27T21:55:44.109Z,28.33
2022-11-27T21:58:10.688Z,28.38
2022-11-27T22:00:37.570Z,28.39
2022-11-27T22:03:04.132Z,28.41
2022-11-27T22:05:30.720Z,28.42
2022-11-27T22:07:57.420Z,28.41
2022-11-27T22:10:24.093Z,28.40
2022-11-27T22:12:50.677Z,28.36
2022-11-27T22:15:17.289Z,28.33
2022-11-27T22:17:44.171Z,28.32
2022-11-27T22:20:11.383Z,28.29
2022-11-27T22:22:38.481Z,28.28
2022-11-27T22:25:05.974Z,28.24
2022-11-27T22:27:34.459Z,28.25
2022-11-27T22:30:01.533Z,28.22
2022-11-27T22:32:28.407Z,28.20
2022-11-27T22:34:56.461Z,28.16
2022-11-27T22:37:23.125Z,28.11
2022-11-27T22:39:49.780Z,28.09
2022-11-27T22:42:16.392Z,28.05
2022-11-27T22:44:43.456Z,28.02
2022-11-27T22:47:10.310Z,27.98
2022-11-27T22:49:38.541Z,27.94
2022-11-27T22:52:05.167Z,27.90
2022-11-27T22:54:31.911Z,27.87
2022-11-27T22:56:58.472Z,27.84
2022-11-27T22:59:34.180Z,27.81
2022-11-27T23:02:03.968Z,27.77
2022-11-27T23:04:31.563Z,27.74
2022-11-27T23:06:58.649Z,27.70
2022-11-27T23:09:25.406Z,27.65
2022-11-27T23:11:54.217Z,27.64
2022-11-27T23:14:21.253Z,27.61
2022-11-27T23:16:47.969Z,27.58
2022-11-27T23:19:14.818Z,27.55
2022-11-27T23:21:42.053Z,27.51
2022-11-27T23:24:11.657Z,27.48
2022-11-27T23:26:38.401Z,27.46
2022-11-27T23:29:06.111Z,27.43
2022-11-27T23:31:35.188Z,27.39
2022-11-27T23:34:04.824Z,27.36
2022-11-27T23:36:31.966Z,27.32
2022-11-27T23:39:03.442Z,27.30
2022-11-27T23:41:30.940Z,27.27
2022-11-27T23:43:58.034Z,27.24
2022-11-27T23:46:27.403Z,27.21
2022-11-27T23:48:55.145Z,27.19
2022-11-27T23:51:24.480Z,27.16
2022-11-27T23:53:52.134Z,27.13
2022-11-27T23:56:29.120Z,27.11
2022-11-27T23:58:56.047Z,27.07
